Terminal Aerodrome Forecast
Issued by NWS

Home | Current Version | Previous Version | Graphics & Text | Print | Product List | Glossary On
Versions: 1 2 3 4 5 6 7 8 9 10 11 12 13 14
000
FTUS43 KGLD 311139
TAFMCK
TAF
KMCK 311139Z 3112/0112 05012KT P6SM BKN010
     FM311500 11012KT P6SM SCT200
     FM312000 12012KT P6SM FEW250
     FM010200 14011KT P6SM SKC=

USA.gov is the U.S. government's official web portal to all federal, state and local government web resources and services.